sensor_id;sensor_type;location;lat;lon;timestamp;P1;durP1;ratioP1;P2;durP2;ratioP2
4353;SDS011;11018;51.258;6.806;2023-04-25T00:00:24;20.10;;;7.13;;
4353;SDS011;11018;51.258;6.806;2023-04-25T00:02:50;24.30;;;7.30;;
4353;SDS011;11018;51.258;6.806;2023-04-25T00:05:16;25.20;;;7.30;;
4353;SDS011;11018;51.258;6.806;2023-04-25T00:07:42;21.92;;;6.95;;
4353;SDS011;11018;51.258;6.806;2023-04-25T00:10:08;21.73;;;8.02;;
4353;SDS011;11018;51.258;6.806;2023-04-25T00:12:36;26.75;;;7.55;;
4353;SDS011;11018;51.258;6.806;2023-04-25T00:15:01;24.20;;;7.00;;
4353;SDS011;11018;51.258;6.806;2023-04-25T00:17:27;21.88;;;7.20;;
4353;SDS011;11018;51.258;6.806;2023-04-25T00:19:53;17.70;;;6.87;;
4353;SDS011;11018;51.258;6.806;2023-04-25T00:22:19;23.60;;;7.10;;
4353;SDS011;11018;51.258;6.806;2023-04-25T00:24:45;25.27;;;7.20;;
4353;SDS011;11018;51.258;6.806;2023-04-25T00:27:11;25.57;;;7.17;;
4353;SDS011;11018;51.258;6.806;2023-04-25T00:29:36;24.47;;;6.90;;
4353;SDS011;11018;51.258;6.806;2023-04-25T00:32:02;22.60;;;7.73;;
4353;SDS011;11018;51.258;6.806;2023-04-25T00:34:27;19.10;;;7.03;;
4353;SDS011;11018;51.258;6.806;2023-04-25T00:36:53;20.10;;;6.80;;
4353;SDS011;11018;51.258;6.806;2023-04-25T00:39:19;16.37;;;6.37;;
4353;SDS011;11018;51.258;6.806;2023-04-25T00:41:44;20.73;;;7.03;;
4353;SDS011;11018;51.258;6.806;2023-04-25T00:44:10;28.00;;;7.25;;
4353;SDS011;11018;51.258;6.806;2023-04-25T00:46:38;16.23;;;6.10;;
4353;SDS011;11018;51.258;6.806;2023-04-25T00:49:04;18.02;;;6.63;;
4353;SDS011;11018;51.258;6.806;2023-04-25T00:51:30;18.02;;;6.10;;
4353;SDS011;11018;51.258;6.806;2023-04-25T00:53:57;21.05;;;6.80;;
4353;SDS011;11018;51.258;6.806;2023-04-25T00:56:23;22.35;;;7.25;;
4353;SDS011;11018;51.258;6.806;2023-04-25T00:58:50;33.60;;;8.13;;
4353;SDS011;11018;51.258;6.806;2023-04-25T01:01:20;20.88;;;6.78;;
4353;SDS011;11018;51.258;6.806;2023-04-25T01:03:46;18.80;;;6.80;;
4353;SDS011;11018;51.258;6.806;2023-04-25T01:06:12;16.67;;;6.90;;
4353;SDS011;11018;51.258;6.806;2023-04-25T01:08:38;18.73;;;6.53;;
4353;SDS011;11018;51.258;6.806;2023-04-25T01:11:04;16.50;;;6.32;;
4353;SDS011;11018;51.258;6.806;2023-04-25T01:13:30;22.30;;;7.07;;
4353;SDS011;11018;51.258;6.806;2023-04-25T01:15:57;22.23;;;6.97;;
4353;SDS011;11018;51.258;6.806;2023-04-25T01:18:23;20.00;;;6.20;;
4353;SDS011;11018;51.258;6.806;2023-04-25T01:20:52;23.07;;;6.47;;
4353;SDS011;11018;51.258;6.806;2023-04-25T01:23:18;18.42;;;6.32;;
4353;SDS011;11018;51.258;6.806;2023-04-25T01:25:45;22.02;;;6.22;;
4353;SDS011;11018;51.258;6.806;2023-04-25T01:28:11;20.63;;;6.00;;
4353;SDS011;11018;51.258;6.806;2023-04-25T01:30:37;18.63;;;6.40;;
4353;SDS011;11018;51.258;6.806;2023-04-25T01:33:04;22.95;;;6.85;;
4353;SDS011;11018;51.258;6.806;2023-04-25T01:35:30;22.77;;;6.70;;
4353;SDS011;11018;51.258;6.806;2023-04-25T01:37:57;21.30;;;6.40;;
4353;SDS011;11018;51.258;6.806;2023-04-25T01:40:23;19.85;;;6.88;;
4353;SDS011;11018;51.258;6.806;2023-04-25T01:42:49;16.42;;;6.97;;
4353;SDS011;11018;51.258;6.806;2023-04-25T01:45:16;17.73;;;6.75;;
4353;SDS011;11018;51.258;6.806;2023-04-25T01:47:42;22.00;;;7.30;;
4353;SDS011;11018;51.258;6.806;2023-04-25T01:50:09;20.02;;;6.95;;
4353;SDS011;11018;51.258;6.806;2023-04-25T01:52:36;19.35;;;7.30;;
4353;SDS011;11018;51.258;6.806;2023-04-25T01:55:01;18.58;;;7.25;;
4353;SDS011;11018;51.258;6.806;2023-04-25T01:57:27;18.92;;;8.25;;
4353;SDS011;11018;51.258;6.806;2023-04-25T02:00:00;13.82;;;7.18;;
4353;SDS011;11018;51.258;6.806;2023-04-25T02:02:27;25.50;;;8.73;;
4353;SDS011;11018;51.258;6.806;2023-04-25T02:04:53;28.17;;;9.40;;
4353;SDS011;11018;51.258;6.806;2023-04-25T02:07:19;21.30;;;7.82;;
4353;SDS011;11018;51.258;6.806;2023-04-25T02:09:45;24.05;;;8.40;;
4353;SDS011;11018;51.258;6.806;2023-04-25T02:12:11;20.92;;;8.45;;
4353;SDS011;11018;51.258;6.806;2023-04-25T02:14:36;22.92;;;8.23;;
4353;SDS011;11018;51.258;6.806;2023-04-25T02:17:02;21.87;;;8.80;;
4353;SDS011;11018;51.258;6.806;2023-04-25T02:19:28;16.17;;;8.10;;
4353;SDS011;11018;51.258;6.806;2023-04-25T02:21:53;17.67;;;7.00;;
4353;SDS011;11018;51.258;6.806;2023-04-25T02:24:19;15.50;;;6.90;;
4353;SDS011;11018;51.258;6.806;2023-04-25T02:26:45;21.73;;;8.32;;
4353;SDS011;11018;51.258;6.806;2023-04-25T02:29:11;19.42;;;7.50;;
4353;SDS011;11018;51.258;6.806;2023-04-25T02:31:37;21.88;;;6.47;;
4353;SDS011;11018;51.258;6.806;2023-04-25T02:34:03;13.30;;;6.27;;
4353;SDS011;11018;51.258;6.806;2023-04-25T02:36:29;16.23;;;6.60;;
4353;SDS011;11018;51.258;6.806;2023-04-25T02:38:57;23.17;;;7.00;;
4353;SDS011;11018;51.258;6.806;2023-04-25T02:41:22;14.40;;;5.60;;
4353;SDS011;11018;51.258;6.806;2023-04-25T02:43:48;13.70;;;5.37;;
4353;SDS011;11018;51.258;6.806;2023-04-25T02:46:14;13.60;;;4.50;;
4353;SDS011;11018;51.258;6.806;2023-04-25T02:48:39;12.63;;;4.77;;
4353;SDS011;11018;51.258;6.806;2023-04-25T02:51:05;13.55;;;4.25;;
4353;SDS011;11018;51.258;6.806;2023-04-25T02:53:30;12.32;;;4.90;;
4353;SDS011;11018;51.258;6.806;2023-04-25T02:55:56;24.23;;;5.95;;
4353;SDS011;11018;51.258;6.806;2023-04-25T02:58:23;14.82;;;5.45;;
4353;SDS011;11018;51.258;6.806;2023-04-25T03:00:48;17.10;;;5.33;;
4353;SDS011;11018;51.258;6.806;2023-04-25T03:03:14;14.13;;;5.50;;
4353;SDS011;11018;51.258;6.806;2023-04-25T03:05:42;15.60;;;5.75;;
4353;SDS011;11018;51.258;6.806;2023-04-25T03:08:11;12.18;;;5.70;;
4353;SDS011;11018;51.258;6.806;2023-04-25T03:10:37;21.85;;;6.53;;
4353;SDS011;11018;51.258;6.806;2023-04-25T03:13:03;15.90;;;6.22;;
4353;SDS011;11018;51.258;6.806;2023-04-25T03:15:29;14.95;;;6.13;;
4353;SDS011;11018;51.258;6.806;2023-04-25T03:17:56;15.30;;;6.10;;
4353;SDS011;11018;51.258;6.806;2023-04-25T03:20:21;19.40;;;7.30;;
4353;SDS011;11018;51.258;6.806;2023-04-25T03:22:47;15.20;;;7.30;;
4353;SDS011;11018;51.258;6.806;2023-04-25T03:25:12;18.03;;;6.50;;
4353;SDS011;11018;51.258;6.806;2023-04-25T03:27:38;14.90;;;6.57;;
4353;SDS011;11018;51.258;6.806;2023-04-25T03:30:04;24.85;;;6.80;;
4353;SDS011;11018;51.258;6.806;2023-04-25T03:32:30;21.37;;;6.83;;
4353;SDS011;11018;51.258;6.806;2023-04-25T03:34:55;19.83;;;6.83;;
4353;SDS011;11018;51.258;6.806;2023-04-25T03:37:21;22.70;;;7.73;;
4353;SDS011;11018;51.258;6.806;2023-04-25T03:39:46;19.50;;;7.72;;
4353;SDS011;11018;51.258;6.806;2023-04-25T03:42:12;19.17;;;7.78;;
4353;SDS011;11018;51.258;6.806;2023-04-25T03:44:37;20.77;;;7.45;;
4353;SDS011;11018;51.258;6.806;2023-04-25T03:47:03;20.58;;;7.90;;
4353;SDS011;11018;51.258;6.806;2023-04-25T03:49:29;20.77;;;9.20;;
4353;SDS011;11018;51.258;6.806;2023-04-25T03:51:54;20.25;;;7.18;;
4353;SDS011;11018;51.258;6.806;2023-04-25T03:54:20;25.00;;;8.37;;
4353;SDS011;11018;51.258;6.806;2023-04-25T03:56:45;26.97;;;8.17;;
4353;SDS011;11018;51.258;6.806;2023-04-25T03:59:11;22.73;;;8.20;;
4353;SDS011;11018;51.258;6.806;2023-04-25T04:01:36;24.80;;;9.50;;
4353;SDS011;11018;51.258;6.806;2023-04-25T04:04:02;23.23;;;7.50;;
4353;SDS011;11018;51.258;6.806;2023-04-25T04:06:28;27.55;;;8.68;;
4353;SDS011;11018;51.258;6.806;2023-04-25T04:08:53;22.90;;;8.40;;
4353;SDS011;11018;51.258;6.806;2023-04-25T04:11:19;24.47;;;8.80;;
4353;SDS011;11018;51.258;6.806;2023-04-25T04:13:45;24.35;;;8.20;;
4353;SDS011;11018;51.258;6.806;2023-04-25T04:16:11;26.33;;;8.98;;
4353;SDS011;11018;51.258;6.806;2023-04-25T04:18:36;25.95;;;9.07;;
4353;SDS011;11018;51.258;6.806;2023-04-25T04:21:02;33.67;;;8.63;;
4353;SDS011;11018;51.258;6.806;2023-04-25T04:23:27;20.50;;;7.90;;
4353;SDS011;11018;51.258;6.806;2023-04-25T04:25:53;29.60;;;8.20;;
4353;SDS011;11018;51.258;6.806;2023-04-25T04:28:19;27.95;;;8.40;;
4353;SDS011;11018;51.258;6.806;2023-04-25T04:30:46;24.23;;;8.68;;
4353;SDS011;11018;51.258;6.806;2023-04-25T04:33:12;37.78;;;9.18;;
4353;SDS011;11018;51.258;6.806;2023-04-25T04:35:40;25.20;;;8.80;;
4353;SDS011;11018;51.258;6.806;2023-04-25T04:38:06;29.33;;;7.95;;
4353;SDS011;11018;51.258;6.806;2023-04-25T04:40:32;33.47;;;9.37;;
4353;SDS011;11018;51.258;6.806;2023-04-25T04:42:57;29.30;;;8.67;;
4353;SDS011;11018;51.258;6.806;2023-04-25T04:45:23;26.63;;;7.47;;
4353;SDS011;11018;51.258;6.806;2023-04-25T04:47:49;29.20;;;9.13;;
4353;SDS011;11018;51.258;6.806;2023-04-25T04:50:15;23.33;;;9.05;;
4353;SDS011;11018;51.258;6.806;2023-04-25T04:52:41;26.80;;;8.45;;
4353;SDS011;11018;51.258;6.806;2023-04-25T04:55:07;23.35;;;8.30;;
4353;SDS011;11018;51.258;6.806;2023-04-25T04:57:33;29.42;;;9.65;;
4353;SDS011;11018;51.258;6.806;2023-04-25T04:59:59;25.92;;;8.38;;
4353;SDS011;11018;51.258;6.806;2023-04-25T05:02:25;27.42;;;9.20;;
4353;SDS011;11018;51.258;6.806;2023-04-25T05:04:51;30.00;;;8.80;;
4353;SDS011;11018;51.258;6.806;2023-04-25T05:07:17;27.10;;;8.82;;
4353;SDS011;11018;51.258;6.806;2023-04-25T05:09:44;28.65;;;8.25;;
4353;SDS011;11018;51.258;6.806;2023-04-25T05:12:09;24.43;;;7.70;;
4353;SDS011;11018;51.258;6.806;2023-04-25T05:14:41;29.75;;;9.15;;
4353;SDS011;11018;51.258;6.806;2023-04-25T05:17:12;29.85;;;8.90;;
4353;SDS011;11018;51.258;6.806;2023-04-25T05:19:37;28.03;;;8.50;;
4353;SDS011;11018;51.258;6.806;2023-04-25T05:22:04;31.45;;;8.88;;
4353;SDS011;11018;51.258;6.806;2023-04-25T05:24:29;28.13;;;7.67;;
4353;SDS011;11018;51.258;6.806;2023-04-25T05:26:55;25.95;;;8.93;;
4353;SDS011;11018;51.258;6.806;2023-04-25T05:29:21;28.55;;;8.23;;
4353;SDS011;11018;51.258;6.806;2023-04-25T05:31:47;28.93;;;8.37;;
4353;SDS011;11018;51.258;6.806;2023-04-25T05:34:13;19.20;;;7.80;;
4353;SDS011;11018;51.258;6.806;2023-04-25T05:36:38;27.27;;;7.57;;
4353;SDS011;11018;51.258;6.806;2023-04-25T05:39:04;23.83;;;8.20;;
4353;SDS011;11018;51.258;6.806;2023-04-25T05:41:31;22.65;;;7.57;;
4353;SDS011;11018;51.258;6.806;2023-04-25T05:43:56;21.10;;;7.20;;
4353;SDS011;11018;51.258;6.806;2023-04-25T05:46:22;32.30;;;9.57;;
4353;SDS011;11018;51.258;6.806;2023-04-25T05:48:47;29.73;;;7.77;;
4353;SDS011;11018;51.258;6.806;2023-04-25T05:51:13;26.40;;;8.57;;
4353;SDS011;11018;51.258;6.806;2023-04-25T05:53:39;23.43;;;8.73;;
4353;SDS011;11018;51.258;6.806;2023-04-25T05:56:04;39.37;;;8.00;;
4353;SDS011;11018;51.258;6.806;2023-04-25T05:58:30;25.83;;;7.60;;
4353;SDS011;11018;51.258;6.806;2023-04-25T06:00:55;28.02;;;7.40;;
4353;SDS011;11018;51.258;6.806;2023-04-25T06:03:21;23.42;;;7.68;;
4353;SDS011;11018;51.258;6.806;2023-04-25T06:05:47;22.95;;;7.97;;
4353;SDS011;11018;51.258;6.806;2023-04-25T06:08:13;29.85;;;8.77;;
4353;SDS011;11018;51.258;6.806;2023-04-25T06:10:38;28.42;;;7.80;;
4353;SDS011;11018;51.258;6.806;2023-04-25T06:13:04;32.15;;;8.95;;
4353;SDS011;11018;51.258;6.806;2023-04-25T06:15:30;24.63;;;7.65;;
4353;SDS011;11018;51.258;6.806;2023-04-25T06:17:57;20.88;;;7.57;;
4353;SDS011;11018;51.258;6.806;2023-04-25T06:20:23;23.70;;;6.78;;
4353;SDS011;11018;51.258;6.806;2023-04-25T06:22:49;25.50;;;7.15;;
4353;SDS011;11018;51.258;6.806;2023-04-25T06:25:16;26.40;;;8.05;;
4353;SDS011;11018;51.258;6.806;2023-04-25T06:27:42;25.47;;;8.03;;
4353;SDS011;11018;51.258;6.806;2023-04-25T06:30:08;28.17;;;7.68;;
4353;SDS011;11018;51.258;6.806;2023-04-25T06:32:34;27.25;;;8.45;;
4353;SDS011;11018;51.258;6.806;2023-04-25T06:35:00;23.27;;;7.80;;
4353;SDS011;11018;51.258;6.806;2023-04-25T06:37:26;21.38;;;7.88;;
4353;SDS011;11018;51.258;6.806;2023-04-25T06:39:51;26.17;;;9.03;;
4353;SDS011;11018;51.258;6.806;2023-04-25T06:42:17;22.70;;;9.63;;
4353;SDS011;11018;51.258;6.806;2023-04-25T06:44:43;27.98;;;7.90;;
4353;SDS011;11018;51.258;6.806;2023-04-25T06:47:08;26.42;;;7.30;;
4353;SDS011;11018;51.258;6.806;2023-04-25T06:49:34;21.73;;;6.55;;
4353;SDS011;11018;51.258;6.806;2023-04-25T06:51:59;17.10;;;5.63;;
4353;SDS011;11018;51.258;6.806;2023-04-25T06:54:25;22.52;;;5.78;;
4353;SDS011;11018;51.258;6.806;2023-04-25T06:56:52;20.45;;;5.10;;
4353;SDS011;11018;51.258;6.806;2023-04-25T06:59:18;24.45;;;6.63;;
4353;SDS011;11018;51.258;6.806;2023-04-25T07:01:44;24.53;;;5.80;;
4353;SDS011;11018;51.258;6.806;2023-04-25T07:04:10;16.55;;;5.80;;
4353;SDS011;11018;51.258;6.806;2023-04-25T07:06:35;20.67;;;5.97;;
4353;SDS011;11018;51.258;6.806;2023-04-25T07:09:07;30.63;;;7.70;;
4353;SDS011;11018;51.258;6.806;2023-04-25T07:11:36;19.88;;;6.50;;
4353;SDS011;11018;51.258;6.806;2023-04-25T07:14:02;26.13;;;6.27;;
4353;SDS011;11018;51.258;6.806;2023-04-25T07:16:28;24.25;;;6.55;;
4353;SDS011;11018;51.258;6.806;2023-04-25T07:18:53;20.10;;;5.40;;
4353;SDS011;11018;51.258;6.806;2023-04-25T07:21:19;22.90;;;6.10;;
4353;SDS011;11018;51.258;6.806;2023-04-25T07:23:45;22.43;;;5.10;;
4353;SDS011;11018;51.258;6.806;2023-04-25T07:26:10;19.67;;;5.40;;
4353;SDS011;11018;51.258;6.806;2023-04-25T07:28:36;11.30;;;3.60;;
4353;SDS011;11018;51.258;6.806;2023-04-25T07:31:01;19.77;;;5.63;;
4353;SDS011;11018;51.258;6.806;2023-04-25T07:33:27;18.77;;;6.47;;
4353;SDS011;11018;51.258;6.806;2023-04-25T07:35:53;22.58;;;6.68;;
4353;SDS011;11018;51.258;6.806;2023-04-25T07:38:20;16.50;;;5.35;;
4353;SDS011;11018;51.258;6.806;2023-04-25T07:40:47;24.13;;;8.20;;
4353;SDS011;11018;51.258;6.806;2023-04-25T07:43:13;22.50;;;7.75;;
4353;SDS011;11018;51.258;6.806;2023-04-25T07:45:41;19.50;;;7.13;;
4353;SDS011;11018;51.258;6.806;2023-04-25T07:48:07;22.63;;;7.07;;
4353;SDS011;11018;51.258;6.806;2023-04-25T07:50:33;21.48;;;6.55;;
4353;SDS011;11018;51.258;6.806;2023-04-25T07:52:58;16.38;;;4.53;;
4353;SDS011;11018;51.258;6.806;2023-04-25T07:55:24;17.90;;;4.45;;
4353;SDS011;11018;51.258;6.806;2023-04-25T07:57:50;11.43;;;4.22;;
4353;SDS011;11018;51.258;6.806;2023-04-25T08:00:15;14.00;;;4.13;;
4353;SDS011;11018;51.258;6.806;2023-04-25T08:02:41;17.88;;;4.82;;
4353;SDS011;11018;51.258;6.806;2023-04-25T08:05:07;17.67;;;5.97;;
4353;SDS011;11018;51.258;6.806;2023-04-25T08:07:36;24.33;;;6.72;;
4353;SDS011;11018;51.258;6.806;2023-04-25T08:10:02;27.45;;;6.28;;
4353;SDS011;11018;51.258;6.806;2023-04-25T08:12:28;21.00;;;6.10;;
4353;SDS011;11018;51.258;6.806;2023-04-25T08:14:54;19.97;;;6.43;;
4353;SDS011;11018;51.258;6.806;2023-04-25T08:17:19;21.53;;;6.20;;
4353;SDS011;11018;51.258;6.806;2023-04-25T08:19:45;24.43;;;6.53;;
4353;SDS011;11018;51.258;6.806;2023-04-25T08:22:10;11.67;;;4.40;;
4353;SDS011;11018;51.258;6.806;2023-04-25T08:24:37;13.80;;;4.73;;
4353;SDS011;11018;51.258;6.806;2023-04-25T08:27:03;20.43;;;4.40;;
4353;SDS011;11018;51.258;6.806;2023-04-25T08:29:28;20.03;;;5.50;;
4353;SDS011;11018;51.258;6.806;2023-04-25T08:31:54;18.80;;;5.57;;
4353;SDS011;11018;51.258;6.806;2023-04-25T08:34:19;14.30;;;4.77;;
4353;SDS011;11018;51.258;6.806;2023-04-25T08:36:45;11.68;;;4.20;;
4353;SDS011;11018;51.258;6.806;2023-04-25T08:39:11;24.23;;;8.85;;
4353;SDS011;11018;51.258;6.806;2023-04-25T08:41:37;15.75;;;5.03;;
4353;SDS011;11018;51.258;6.806;2023-04-25T08:44:03;16.98;;;6.32;;
4353;SDS011;11018;51.258;6.806;2023-04-25T08:46:30;23.13;;;8.23;;
4353;SDS011;11018;51.258;6.806;2023-04-25T08:48:57;20.45;;;6.15;;
4353;SDS011;11018;51.258;6.806;2023-04-25T08:51:26;29.10;;;13.57;;
4353;SDS011;11018;51.258;6.806;2023-04-25T08:53:55;23.52;;;5.97;;
4353;SDS011;11018;51.258;6.806;2023-04-25T08:56:27;21.00;;;5.50;;
4353;SDS011;11018;51.258;6.806;2023-04-25T08:58:53;29.73;;;8.95;;
4353;SDS011;11018;51.258;6.806;2023-04-25T09:01:20;24.67;;;7.30;;
4353;SDS011;11018;51.258;6.806;2023-04-25T09:03:48;32.72;;;8.80;;
4353;SDS011;11018;51.258;6.806;2023-04-25T09:06:14;17.63;;;6.30;;
4353;SDS011;11018;51.258;6.806;2023-04-25T09:08:41;19.23;;;4.25;;
4353;SDS011;11018;51.258;6.806;2023-04-25T09:11:06;17.40;;;5.37;;
4353;SDS011;11018;51.258;6.806;2023-04-25T09:13:32;16.48;;;4.88;;
4353;SDS011;11018;51.258;6.806;2023-04-25T09:15:58;13.40;;;4.57;;
4353;SDS011;11018;51.258;6.806;2023-04-25T09:18:27;11.30;;;3.43;;
4353;SDS011;11018;51.258;6.806;2023-04-25T09:21:10;12.98;;;3.20;;
4353;SDS011;11018;51.258;6.806;2023-04-25T09:23:40;10.82;;;3.40;;
4353;SDS011;11018;51.258;6.806;2023-04-25T09:26:10;9.40;;;3.20;;
4353;SDS011;11018;51.258;6.806;2023-04-25T09:28:40;13.18;;;4.00;;
4353;SDS011;11018;51.258;6.806;2023-04-25T09:31:07;10.25;;;3.55;;
4353;SDS011;11018;51.258;6.806;2023-04-25T09:33:36;11.55;;;2.40;;
4353;SDS011;11018;51.258;6.806;2023-04-25T09:38:29;12.68;;;3.97;;
4353;SDS011;11018;51.258;6.806;2023-04-25T09:40:56;9.73;;;3.00;;
4353;SDS011;11018;51.258;6.806;2023-04-25T09:43:23;10.23;;;3.72;;
4353;SDS011;11018;51.258;6.806;2023-04-25T09:45:49;12.13;;;3.00;;
4353;SDS011;11018;51.258;6.806;2023-04-25T09:48:17;8.82;;;3.10;;
4353;SDS011;11018;51.258;6.806;2023-04-25T09:50:43;13.90;;;3.80;;
4353;SDS011;11018;51.258;6.806;2023-04-25T09:53:10;14.13;;;4.13;;
4353;SDS011;11018;51.258;6.806;2023-04-25T09:55:35;14.53;;;3.80;;
4353;SDS011;11018;51.258;6.806;2023-04-25T09:58:05;9.20;;;2.70;;
4353;SDS011;11018;51.258;6.806;2023-04-25T10:00:33;6.73;;;2.50;;
4353;SDS011;11018;51.258;6.806;2023-04-25T10:03:03;8.18;;;3.15;;
4353;SDS011;11018;51.258;6.806;2023-04-25T10:05:32;10.32;;;2.95;;
4353;SDS011;11018;51.258;6.806;2023-04-25T10:08:00;9.10;;;3.08;;
4353;SDS011;11018;51.258;6.806;2023-04-25T10:10:28;8.82;;;3.10;;
4353;SDS011;11018;51.258;6.806;2023-04-25T10:12:57;7.22;;;2.25;;
4353;SDS011;11018;51.258;6.806;2023-04-25T10:15:23;9.45;;;2.55;;
4353;SDS011;11018;51.258;6.806;2023-04-25T10:17:50;7.73;;;2.70;;
4353;SDS011;11018;51.258;6.806;2023-04-25T10:20:15;14.10;;;2.78;;
4353;SDS011;11018;51.258;6.806;2023-04-25T10:22:42;11.88;;;2.70;;
4353;SDS011;11018;51.258;6.806;2023-04-25T10:25:10;4.57;;;2.20;;
4353;SDS011;11018;51.258;6.806;2023-04-25T10:27:36;10.63;;;2.20;;
4353;SDS011;11018;51.258;6.806;2023-04-25T10:30:04;8.13;;;2.50;;
4353;SDS011;11018;51.258;6.806;2023-04-25T10:32:41;6.68;;;2.10;;
4353;SDS011;11018;51.258;6.806;2023-04-25T10:35:14;10.67;;;1.90;;
4353;SDS011;11018;51.258;6.806;2023-04-25T10:37:57;8.68;;;2.17;;
4353;SDS011;11018;51.258;6.806;2023-04-25T10:40:37;7.50;;;2.70;;
4353;SDS011;11018;51.258;6.806;2023-04-25T10:45:56;5.77;;;1.77;;
4353;SDS011;11018;51.258;6.806;2023-04-25T10:48:25;11.73;;;2.33;;
4353;SDS011;11018;51.258;6.806;2023-04-25T10:51:06;7.78;;;2.08;;
4353;SDS011;11018;51.258;6.806;2023-04-25T10:53:35;5.72;;;1.90;;
4353;SDS011;11018;51.258;6.806;2023-04-25T10:56:11;8.23;;;2.20;;
4353;SDS011;11018;51.258;6.806;2023-04-25T10:58:42;6.88;;;1.80;;
4353;SDS011;11018;51.258;6.806;2023-04-25T11:01:08;6.03;;;1.65;;
4353;SDS011;11018;51.258;6.806;2023-04-25T11:03:38;6.60;;;2.20;;
4353;SDS011;11018;51.258;6.806;2023-04-25T11:06:12;7.05;;;2.30;;
4353;SDS011;11018;51.258;6.806;2023-04-25T11:08:48;7.00;;;2.05;;
4353;SDS011;11018;51.258;6.806;2023-04-25T11:11:16;3.63;;;1.50;;
4353;SDS011;11018;51.258;6.806;2023-04-25T11:13:43;8.00;;;2.42;;
4353;SDS011;11018;51.258;6.806;2023-04-25T11:16:08;3.50;;;2.10;;
4353;SDS011;11018;51.258;6.806;2023-04-25T11:18:34;10.30;;;2.30;;
4353;SDS011;11018;51.258;6.806;2023-04-25T11:21:00;6.63;;;2.20;;
4353;SDS011;11018;51.258;6.806;2023-04-25T11:23:27;5.93;;;1.80;;
4353;SDS011;11018;51.258;6.806;2023-04-25T11:25:54;6.32;;;1.92;;
4353;SDS011;11018;51.258;6.806;2023-04-25T11:28:20;4.10;;;1.80;;
4353;SDS011;11018;51.258;6.806;2023-04-25T11:30:48;5.95;;;1.90;;
4353;SDS011;11018;51.258;6.806;2023-04-25T11:33:15;6.25;;;1.88;;
4353;SDS011;11018;51.258;6.806;2023-04-25T11:35:41;10.38;;;2.90;;
4353;SDS011;11018;51.258;6.806;2023-04-25T11:38:06;11.17;;;2.57;;
4353;SDS011;11018;51.258;6.806;2023-04-25T11:40:32;7.27;;;1.50;;
4353;SDS011;11018;51.258;6.806;2023-04-25T11:42:59;7.40;;;2.00;;
4353;SDS011;11018;51.258;6.806;2023-04-25T11:45:25;9.20;;;1.88;;
4353;SDS011;11018;51.258;6.806;2023-04-25T11:47:51;4.28;;;1.70;;
4353;SDS011;11018;51.258;6.806;2023-04-25T11:50:18;9.95;;;2.60;;
4353;SDS011;11018;51.258;6.806;2023-04-25T11:52:47;6.70;;;2.20;;
4353;SDS011;11018;51.258;6.806;2023-04-25T11:55:14;9.02;;;2.00;;
4353;SDS011;11018;51.258;6.806;2023-04-25T11:57:41;9.60;;;2.38;;
4353;SDS011;11018;51.258;6.806;2023-04-25T12:02:40;10.60;;;3.10;;
4353;SDS011;11018;51.258;6.806;2023-04-25T12:05:07;9.40;;;2.90;;
4353;SDS011;11018;51.258;6.806;2023-04-25T12:07:34;9.25;;;3.13;;
4353;SDS011;11018;51.258;6.806;2023-04-25T12:10:08;10.90;;;3.30;;
4353;SDS011;11018;51.258;6.806;2023-04-25T12:12:41;11.93;;;3.13;;
4353;SDS011;11018;51.258;6.806;2023-04-25T12:15:29;13.20;;;3.78;;
4353;SDS011;11018;51.258;6.806;2023-04-25T12:17:53;11.45;;;3.35;;
4353;SDS011;11018;51.258;6.806;2023-04-25T12:20:25;14.30;;;4.37;;
4353;SDS011;11018;51.258;6.806;2023-04-25T12:22:51;15.23;;;4.75;;
4353;SDS011;11018;51.258;6.806;2023-04-25T12:33:22;13.80;;;4.30;;
4353;SDS011;11018;51.258;6.806;2023-04-25T12:35:48;17.02;;;4.57;;
4353;SDS011;11018;51.258;6.806;2023-04-25T12:38:20;9.37;;;4.10;;
4353;SDS011;11018;51.258;6.806;2023-04-25T12:40:51;14.52;;;4.57;;
4353;SDS011;11018;51.258;6.806;2023-04-25T12:43:17;13.75;;;4.70;;
4353;SDS011;11018;51.258;6.806;2023-04-25T12:45:44;15.82;;;4.05;;
4353;SDS011;11018;51.258;6.806;2023-04-25T12:48:12;16.83;;;3.83;;
4353;SDS011;11018;51.258;6.806;2023-04-25T12:50:37;13.10;;;3.80;;
4353;SDS011;11018;51.258;6.806;2023-04-25T12:53:03;11.75;;;3.83;;
4353;SDS011;11018;51.258;6.806;2023-04-25T12:55:28;12.70;;;3.38;;
4353;SDS011;11018;51.258;6.806;2023-04-25T12:57:54;12.30;;;3.10;;
4353;SDS011;11018;51.258;6.806;2023-04-25T13:00:20;14.50;;;3.87;;
4353;SDS011;11018;51.258;6.806;2023-04-25T13:02:45;8.57;;;3.40;;
4353;SDS011;11018;51.258;6.806;2023-04-25T13:05:11;11.90;;;3.40;;
4353;SDS011;11018;51.258;6.806;2023-04-25T13:07:37;14.85;;;3.70;;
4353;SDS011;11018;51.258;6.806;2023-04-25T13:10:03;10.88;;;3.40;;
4353;SDS011;11018;51.258;6.806;2023-04-25T13:12:30;12.33;;;3.90;;
4353;SDS011;11018;51.258;6.806;2023-04-25T13:14:56;7.82;;;3.28;;
4353;SDS011;11018;51.258;6.806;2023-04-25T13:17:22;8.52;;;3.00;;
4353;SDS011;11018;51.258;6.806;2023-04-25T13:19:47;7.55;;;2.10;;
4353;SDS011;11018;51.258;6.806;2023-04-25T13:22:13;6.50;;;2.20;;
4353;SDS011;11018;51.258;6.806;2023-04-25T13:24:40;8.63;;;2.63;;
4353;SDS011;11018;51.258;6.806;2023-04-25T13:27:05;11.52;;;3.53;;
4353;SDS011;11018;51.258;6.806;2023-04-25T13:29:31;13.90;;;3.40;;
4353;SDS011;11018;51.258;6.806;2023-04-25T13:31:59;10.80;;;3.30;;
4353;SDS011;11018;51.258;6.806;2023-04-25T13:34:25;8.23;;;2.60;;
4353;SDS011;11018;51.258;6.806;2023-04-25T13:36:51;9.77;;;2.92;;
4353;SDS011;11018;51.258;6.806;2023-04-25T13:39:17;8.88;;;3.00;;
4353;SDS011;11018;51.258;6.806;2023-04-25T13:41:42;7.88;;;2.65;;
4353;SDS011;11018;51.258;6.806;2023-04-25T13:44:08;10.15;;;3.00;;
4353;SDS011;11018;51.258;6.806;2023-04-25T13:46:33;6.57;;;2.70;;
4353;SDS011;11018;51.258;6.806;2023-04-25T13:48:59;7.80;;;2.80;;
4353;SDS011;11018;51.258;6.806;2023-04-25T13:51:26;8.25;;;2.80;;
4353;SDS011;11018;51.258;6.806;2023-04-25T13:53:51;15.70;;;2.45;;
4353;SDS011;11018;51.258;6.806;2023-04-25T13:56:17;4.93;;;2.00;;
4353;SDS011;11018;51.258;6.806;2023-04-25T13:58:44;7.85;;;2.05;;
4353;SDS011;11018;51.258;6.806;2023-04-25T14:01:10;5.95;;;2.15;;
4353;SDS011;11018;51.258;6.806;2023-04-25T14:03:36;6.40;;;2.20;;
4353;SDS011;11018;51.258;6.806;2023-04-25T14:06:01;8.63;;;2.30;;
4353;SDS011;11018;51.258;6.806;2023-04-25T14:08:27;14.40;;;3.50;;
4353;SDS011;11018;51.258;6.806;2023-04-25T14:10:53;10.65;;;2.75;;
4353;SDS011;11018;51.258;6.806;2023-04-25T14:13:19;9.50;;;2.70;;
4353;SDS011;11018;51.258;6.806;2023-04-25T14:15:45;11.80;;;2.83;;
4353;SDS011;11018;51.258;6.806;2023-04-25T14:18:11;12.57;;;2.90;;
4353;SDS011;11018;51.258;6.806;2023-04-25T14:20:36;8.90;;;3.03;;
4353;SDS011;11018;51.258;6.806;2023-04-25T14:23:02;8.60;;;2.50;;
4353;SDS011;11018;51.258;6.806;2023-04-25T14:25:29;8.07;;;2.17;;
4353;SDS011;11018;51.258;6.806;2023-04-25T14:27:55;5.72;;;2.28;;
4353;SDS011;11018;51.258;6.806;2023-04-25T14:30:20;10.18;;;2.60;;
4353;SDS011;11018;51.258;6.806;2023-04-25T14:32:47;6.55;;;2.00;;
4353;SDS011;11018;51.258;6.806;2023-04-25T14:35:14;4.80;;;2.10;;
4353;SDS011;11018;51.258;6.806;2023-04-25T14:37:40;9.40;;;2.80;;
4353;SDS011;11018;51.258;6.806;2023-04-25T14:40:06;8.63;;;2.45;;
4353;SDS011;11018;51.258;6.806;2023-04-25T14:42:36;15.73;;;3.83;;
4353;SDS011;11018;51.258;6.806;2023-04-25T14:45:03;11.35;;;3.20;;
4353;SDS011;11018;51.258;6.806;2023-04-25T14:47:30;7.90;;;2.90;;
4353;SDS011;11018;51.258;6.806;2023-04-25T14:49:56;8.20;;;2.90;;
4353;SDS011;11018;51.258;6.806;2023-04-25T14:52:22;6.97;;;2.20;;
4353;SDS011;11018;51.258;6.806;2023-04-25T14:54:47;6.20;;;2.50;;
4353;SDS011;11018;51.258;6.806;2023-04-25T14:57:13;8.38;;;2.90;;
4353;SDS011;11018;51.258;6.806;2023-04-25T14:59:39;6.50;;;2.38;;
4353;SDS011;11018;51.258;6.806;2023-04-25T15:02:05;6.07;;;2.37;;